createdAt,value
2019-03-09T00:02:29.184Z,74.84
2019-03-09T00:08:33.759Z,74.31
2019-03-09T00:14:38.721Z,74.67
2019-03-09T00:20:43.273Z,75.86
2019-03-09T00:26:49.924Z,76.24
2019-03-09T00:32:54.473Z,76.85
2019-03-09T00:38:59.278Z,77.27
2019-03-09T00:45:04.546Z,77.85
2019-03-09T00:51:09.332Z,77.64
2019-03-09T00:57:14.696Z,77.80
2019-03-09T01:03:19.224Z,77.81
2019-03-09T01:09:24.002Z,77.78
2019-03-09T01:15:28.627Z,77.75
2019-03-09T01:21:33.247Z,77.39
2019-03-09T01:27:38.098Z,77.17
2019-03-09T01:33:43.095Z,77.00
2019-03-09T01:39:47.977Z,75.88
2019-03-09T01:45:52.834Z,75.11
2019-03-09T01:51:57.592Z,75.03
2019-03-09T01:58:02.302Z,74.27
2019-03-09T02:04:06.935Z,73.57
2019-03-09T02:10:16.166Z,73.73
2019-03-09T02:16:21.002Z,73.23
2019-03-09T02:22:25.629Z,72.41
2019-03-09T02:28:30.292Z,71.69
2019-03-09T02:34:34.850Z,72.32
2019-03-09T02:40:39.563Z,72.96
2019-03-09T02:46:44.544Z,72.67
2019-03-09T02:52:49.362Z,72.29
2019-03-09T02:58:53.981Z,72.04
2019-03-09T03:04:58.517Z,72.48
2019-03-09T03:11:03.083Z,73.04
2019-03-09T03:17:07.651Z,74.00
2019-03-09T03:23:12.393Z,74.66
2019-03-09T03:29:17.424Z,76.54
2019-03-09T03:35:22.137Z,77.57
2019-03-09T03:41:27.230Z,80.05
2019-03-09T03:47:31.810Z,80.66
2019-03-09T03:53:36.514Z,81.53
2019-03-09T03:59:41.274Z,82.03
2019-03-09T04:05:46.367Z,82.87
2019-03-09T04:11:51.325Z,83.48
2019-03-09T04:17:55.867Z,84.16
2019-03-09T04:24:00.449Z,85.96
2019-03-09T04:30:08.353Z,86.60
2019-03-09T04:36:13.411Z,87.27
2019-03-09T04:42:19.329Z,88.57
2019-03-09T04:48:24.062Z,89.89
2019-03-09T04:54:28.622Z,91.13
2019-03-09T05:00:33.247Z,91.59
2019-03-09T05:06:37.798Z,93.03
2019-03-09T05:12:44.346Z,94.10
2019-03-09T05:18:49.478Z,94.36
2019-03-09T05:24:54.186Z,95.27
2019-03-09T05:30:58.812Z,95.26
2019-03-09T05:37:03.603Z,96.08
2019-03-09T05:43:08.480Z,95.55
2019-03-09T05:49:13.100Z,95.45
2019-03-09T05:55:18.234Z,95.21
2019-03-09T06:01:22.998Z,94.74
2019-03-09T06:07:27.546Z,94.07
2019-03-09T06:13:32.182Z,93.81
2019-03-09T06:19:36.733Z,94.26
2019-03-09T06:25:41.320Z,94.40
2019-03-09T06:32:34.513Z,93.99
2019-03-09T06:38:43.814Z,94.72
2019-03-09T06:44:48.543Z,95.54
2019-03-09T06:50:53.276Z,94.86
2019-03-09T06:56:58.349Z,94.47
2019-03-09T07:03:03.444Z,93.61
2019-03-09T07:09:08.290Z,92.41
2019-03-09T07:15:35.319Z,92.71
2019-03-09T07:21:39.945Z,91.62
2019-03-09T07:27:45.026Z,91.54
2019-03-09T07:33:54.350Z,91.29
2019-03-09T07:39:59.077Z,90.51
2019-03-09T07:46:03.640Z,88.35
2019-03-09T07:52:29.286Z,85.90
2019-03-09T07:58:33.846Z,82.51
2019-03-09T08:04:38.583Z,80.98
2019-03-09T08:10:43.686Z,78.84
2019-03-09T08:16:50.139Z,77.23
2019-03-09T08:22:55.355Z,76.72
2019-03-09T08:29:00.154Z,76.12
2019-03-09T08:35:06.905Z,77.14
2019-03-09T08:41:11.486Z,75.93
2019-03-09T08:47:16.780Z,74.20
2019-03-09T08:53:21.544Z,74.47
2019-03-09T08:59:26.186Z,72.66
2019-03-09T09:05:30.805Z,70.50
2019-03-09T09:11:35.444Z,69.68
2019-03-09T09:17:40.151Z,66.41
2019-03-09T09:23:45.161Z,65.21
2019-03-09T09:29:50.116Z,63.48
2019-03-09T09:35:55.029Z,62.99
2019-03-09T09:41:59.805Z,63.04
2019-03-09T09:48:04.462Z,61.70
2019-03-09T09:54:09.028Z,59.80
2019-03-09T10:00:29.304Z,60.22
2019-03-09T10:06:33.852Z,60.21
2019-03-09T10:12:38.575Z,60.90
2019-03-09T10:18:44.331Z,60.46
2019-03-09T10:24:49.373Z,60.92
2019-03-09T10:30:53.981Z,59.42
2019-03-09T10:36:58.757Z,59.10
2019-03-09T10:43:03.319Z,58.87
2019-03-09T10:49:07.872Z,58.94
2019-03-09T10:55:28.508Z,60.48
2019-03-09T11:01:33.208Z,59.78
2019-03-09T11:07:37.830Z,59.66
2019-03-09T11:13:51.474Z,58.33
2019-03-09T11:19:49.167Z,58.60
2019-03-09T11:25:53.729Z,56.99
2019-03-09T11:31:58.365Z,56.85
2019-03-09T11:38:03.001Z,56.39
2019-03-09T11:44:07.566Z,55.24
2019-03-09T11:50:15.241Z,56.15
2019-03-09T11:56:19.891Z,54.92
2019-03-09T12:02:24.519Z,54.73
2019-03-09T12:08:29.188Z,56.11
2019-03-09T12:14:33.932Z,54.42
2019-03-09T12:20:38.514Z,53.70
2019-03-09T12:26:43.076Z,53.78
2019-03-09T12:32:49.682Z,51.73
2019-03-09T12:38:54.291Z,50.94
2019-03-09T12:44:58.857Z,51.14
2019-03-09T12:51:03.606Z,48.85
2019-03-09T12:57:08.235Z,48.05
2019-03-09T13:03:12.863Z,47.69
2019-03-09T13:09:20.905Z,45.96
2019-03-09T13:15:25.606Z,40.59
2019-03-09T13:21:30.163Z,38.75
2019-03-09T13:27:34.816Z,39.03
2019-03-09T13:33:39.438Z,38.93
2019-03-09T13:39:44.233Z,38.36
2019-03-09T13:45:48.911Z,40.47
2019-03-09T13:51:53.522Z,39.57
2019-03-09T13:57:58.098Z,41.81
2019-03-09T14:04:02.772Z,39.50
2019-03-09T14:10:18.034Z,39.92
2019-03-09T14:16:22.603Z,39.40
2019-03-09T14:22:27.151Z,40.52
2019-03-09T14:28:31.704Z,39.13
2019-03-09T14:34:36.575Z,39.74
2019-03-09T14:40:41.348Z,44.54
2019-03-09T14:46:47.392Z,47.37
2019-03-09T14:52:52.191Z,44.83
2019-03-09T14:58:56.827Z,45.67
2019-03-09T15:05:01.584Z,48.32
2019-03-09T15:11:06.226Z,50.74
2019-03-09T15:17:11.102Z,53.60
2019-03-09T15:23:15.983Z,55.32
2019-03-09T15:29:20.591Z,62.36
2019-03-09T15:35:25.265Z,72.15
2019-03-09T15:41:29.870Z,78.70
2019-03-09T15:47:34.499Z,84.39
2019-03-09T15:53:39.129Z,88.52
2019-03-09T15:59:43.881Z,91.80
2019-03-09T16:05:48.681Z,87.73
2019-03-09T16:11:53.310Z,85.19
2019-03-09T16:17:58.023Z,83.23
2019-03-09T16:24:02.569Z,81.72
2019-03-09T16:30:19.194Z,81.66
2019-03-09T16:36:24.383Z,81.13
2019-03-09T16:42:28.953Z,79.72
2019-03-09T16:48:33.597Z,79.56
2019-03-09T16:54:38.401Z,79.73
2019-03-09T17:00:43.359Z,81.11
2019-03-09T17:06:48.129Z,84.04
2019-03-09T17:12:52.670Z,93.17
2019-03-09T17:18:57.215Z,92.74
2019-03-09T17:25:01.884Z,95.05
2019-03-09T17:31:06.436Z,95.06
2019-03-09T17:37:10.999Z,94.96
2019-03-09T17:43:16.362Z,94.85
2019-03-09T17:49:21.223Z,94.54
2019-03-09T17:55:25.846Z,93.40
2019-03-09T18:01:30.579Z,91.28
2019-03-09T18:07:35.325Z,88.42
2019-03-09T18:13:39.892Z,86.93
2019-03-09T18:19:44.468Z,80.25
2019-03-09T18:25:49.141Z,79.11
2019-03-09T18:31:53.692Z,76.87
2019-03-09T18:37:58.269Z,81.48
2019-03-09T18:44:02.826Z,84.20
2019-03-09T18:50:08.381Z,85.68
2019-03-09T18:56:12.939Z,84.71
2019-03-09T19:02:17.816Z,86.85
2019-03-09T19:08:22.561Z,85.83
2019-03-09T19:14:27.128Z,83.21
2019-03-09T19:20:31.764Z,82.51
2019-03-09T19:26:36.323Z,81.73
2019-03-09T19:32:40.940Z,82.08
2019-03-09T19:38:45.508Z,81.46
2019-03-09T19:44:50.200Z,79.73
2019-03-09T19:50:54.774Z,77.78
2019-03-09T19:56:59.449Z,77.52
2019-03-09T20:03:04.198Z,74.97
2019-03-09T20:09:09.674Z,74.74
2019-03-09T20:15:21.898Z,75.79
2019-03-09T20:21:26.543Z,74.74
2019-03-09T20:27:31.225Z,73.31
2019-03-09T20:33:35.989Z,74.43
2019-03-09T20:39:40.766Z,74.61
2019-03-09T20:45:46.398Z,73.86
2019-03-09T20:51:50.959Z,74.58
2019-03-09T20:57:55.680Z,74.21
2019-03-09T21:04:01.080Z,72.79
2019-03-09T21:10:10.760Z,72.36
2019-03-09T21:16:15.566Z,73.35
2019-03-09T21:22:20.119Z,73.81
2019-03-09T21:28:24.677Z,72.56
2019-03-09T21:34:29.238Z,71.93
2019-03-09T21:40:33.862Z,71.43
2019-03-09T21:46:38.498Z,71.19
2019-03-09T21:52:43.234Z,71.07
2019-03-09T21:58:47.900Z,71.88
2019-03-09T22:04:52.599Z,72.39
2019-03-09T22:10:57.230Z,72.82
2019-03-09T22:17:01.813Z,73.75
2019-03-09T22:23:06.349Z,74.23
2019-03-09T22:29:10.921Z,74.78
2019-03-09T22:35:16.250Z,73.42
2019-03-09T22:41:20.798Z,75.35
2019-03-09T22:47:25.360Z,73.70
2019-03-09T22:53:29.982Z,74.27
2019-03-09T22:59:34.621Z,74.57
2019-03-09T23:05:39.170Z,75.44
2019-03-09T23:11:43.833Z,74.81
2019-03-09T23:17:48.879Z,75.05
2019-03-09T23:23:53.421Z,75.78
2019-03-09T23:29:57.981Z,78.18
2019-03-09T23:36:02.563Z,81.38
2019-03-09T23:42:07.255Z,81.62
2019-03-09T23:48:11.878Z,82.68
2019-03-09T23:54:17.583Z,81.98
